Time;durP1;ratioP1;P1;durP2;ratioP2;P2;SDS_P1;SDS_P2;PMS_P1;PMS_P2;Temp;Humidity;BMP_temperature;BMP_pressure;BME280_temperature;BME280_humidity;BME280_pressure;Samples;Min_cycle;Max_cycle;Signal;HPM_P1;HPM_P2
2020/12/23 00:01:22;;;;;;;41.67;18.65;;;13.50;99.90;;;;;;5049261;28;20039;-73
2020/12/23 00:03:48;;;;;;;38.80;18.10;;;13.50;99.90;;;;;;5047116;28;20140;-73
2020/12/23 00:06:14;;;;;;;35.00;17.85;;;13.50;99.90;;;;;;5044904;28;20052;-73
2020/12/23 00:08:39;;;;;;;55.15;21.40;;;13.40;99.90;;;;;;5046439;28;20033;-73
2020/12/23 00:11:05;;;;;;;52.22;20.40;;;13.50;99.90;;;;;;5040797;28;20143;-72
2020/12/23 00:13:31;;;;;;;41.30;19.10;;;13.40;99.90;;;;;;5045593;28;20082;-72
2020/12/23 00:15:56;;;;;;;48.72;19.73;;;13.40;99.90;;;;;;5046366;28;20518;-73
2020/12/23 00:18:22;;;;;;;49.58;19.13;;;13.40;99.90;;;;;;5045828;28;20056;-73
2020/12/23 00:20:48;;;;;;;45.28;19.10;;;13.40;99.90;;;;;;5048935;28;20032;-73
2020/12/23 00:23:14;;;;;;;48.67;18.73;;;13.40;99.90;;;;;;5046575;28;20076;-73
2020/12/23 00:25:39;;;;;;;43.60;18.70;;;13.40;99.90;;;;;;5047266;28;20026;-73
2020/12/23 00:28:05;;;;;;;44.25;18.23;;;13.40;99.90;;;;;;5049976;28;20028;-73
2020/12/23 00:30:30;;;;;;;34.55;17.00;;;13.30;99.90;;;;;;5042628;28;20025;-73
2020/12/23 00:32:56;;;;;;;45.03;18.48;;;13.30;99.90;;;;;;5041388;28;20061;-73
2020/12/23 00:35:22;;;;;;;40.33;17.45;;;13.40;99.90;;;;;;5045045;28;20561;-73
2020/12/23 00:37:48;;;;;;;43.63;17.77;;;13.30;99.90;;;;;;5043290;28;20025;-73
2020/12/23 00:40:13;;;;;;;44.95;18.77;;;13.40;99.90;;;;;;5043872;28;20461;-73
2020/12/23 00:42:39;;;;;;;46.15;17.83;;;13.40;99.90;;;;;;5047611;28;20044;-73
2020/12/23 00:45:05;;;;;;;58.63;21.08;;;13.40;99.90;;;;;;5035727;28;20026;-73
2020/12/23 00:47:30;;;;;;;39.55;18.63;;;13.30;99.90;;;;;;5043273;28;20108;-73
2020/12/23 00:49:56;;;;;;;39.72;18.42;;;13.20;99.90;;;;;;5047258;28;20049;-73
2020/12/23 00:52:22;;;;;;;53.17;20.23;;;13.20;99.90;;;;;;5045351;28;20485;-73
2020/12/23 00:54:47;;;;;;;49.63;20.00;;;13.30;99.90;;;;;;5047477;28;20390;-73
2020/12/23 00:57:13;;;;;;;39.15;18.90;;;13.30;99.90;;;;;;5047250;28;20021;-73
2020/12/23 00:59:39;;;;;;;40.10;19.05;;;13.30;99.90;;;;;;5046203;28;20534;-73
2020/12/23 01:02:05;;;;;;;49.92;21.73;;;13.20;99.90;;;;;;5042410;28;20065;-73
2020/12/23 01:04:31;;;;;;;44.78;20.08;;;13.30;99.90;;;;;;5042734;28;20500;-73
2020/12/23 01:06:56;;;;;;;44.53;20.77;;;13.30;99.90;;;;;;5051961;28;20037;-73
2020/12/23 01:09:22;;;;;;;38.85;20.05;;;13.30;99.90;;;;;;5047436;28;20036;-73
2020/12/23 01:11:49;;;;;;;40.65;19.95;;;13.30;99.90;;;;;;5048272;28;20018;-73
2020/12/23 01:14:16;;;;;;;48.17;21.58;;;13.30;99.90;;;;;;5050295;28;20039;-73
2020/12/23 01:16:41;;;;;;;56.60;23.70;;;13.30;99.90;;;;;;5052195;28;20025;-73
2020/12/23 01:19:07;;;;;;;57.35;24.70;;;13.30;99.90;;;;;;5043985;28;20032;-73
2020/12/23 01:21:33;;;;;;;56.83;24.70;;;13.30;99.90;;;;;;5042285;28;20032;-73
2020/12/23 01:23:58;;;;;;;57.95;24.98;;;13.30;99.90;;;;;;5043299;28;20033;-73
2020/12/23 01:26:24;;;;;;;55.30;25.25;;;13.30;99.90;;;;;;5049127;28;20039;-73
2020/12/23 01:28:50;;;;;;;57.53;24.45;;;13.30;99.90;;;;;;5040691;28;20132;-73
2020/12/23 01:31:15;;;;;;;47.65;23.30;;;13.30;99.90;;;;;;5044303;28;20033;-73
2020/12/23 01:33:41;;;;;;;67.80;28.00;;;13.30;99.90;;;;;;5048354;28;20491;-73
2020/12/23 01:36:08;;;;;;;65.20;29.65;;;13.30;99.90;;;;;;5054165;28;20029;-73
2020/12/23 01:38:34;;;;;;;60.05;26.58;;;13.30;99.90;;;;;;5043909;28;20022;-73
2020/12/23 01:41:01;;;;;;;55.28;26.85;;;13.30;99.90;;;;;;5041468;28;20482;-74
2020/12/23 01:43:27;;;;;;;47.45;23.50;;;13.30;99.90;;;;;;5044068;28;20033;-74
2020/12/23 01:45:53;;;;;;;62.20;29.88;;;13.30;99.90;;;;;;5042219;28;20024;-74
2020/12/23 01:48:24;;;;;;;58.08;26.42;;;13.30;99.90;;;;;;5039485;28;20473;-73
2020/12/23 01:50:50;;;;;;;69.40;30.88;;;13.30;99.90;;;;;;5044556;28;20030;-74
2020/12/23 01:53:17;;;;;;;74.50;32.38;;;13.30;99.90;;;;;;5046162;28;20024;-73
2020/12/23 01:55:46;;;;;;;64.07;29.75;;;13.30;99.90;;;;;;5045872;28;20029;-73
2020/12/23 01:58:13;;;;;;;67.88;30.00;;;13.30;99.90;;;;;;5044661;28;20021;-74
2020/12/23 02:00:40;;;;;;;68.00;31.45;;;13.30;99.90;;;;;;5046181;28;20058;-73
2020/12/23 02:03:10;;;;;;;64.68;30.08;;;13.30;99.90;;;;;;5038658;28;20032;-73
2020/12/23 02:05:39;;;;;;;61.63;30.67;;;13.30;99.90;;;;;;5045310;28;20113;-74
2020/12/23 02:08:05;;;;;;;48.60;26.30;;;13.30;99.90;;;;;;5038238;28;20032;-73
2020/12/23 02:10:32;;;;;;;65.20;29.65;;;13.30;99.90;;;;;;5048251;28;20025;-74
2020/12/23 02:12:59;;;;;;;56.28;26.70;;;13.30;99.90;;;;;;5042042;28;20371;-73
2020/12/23 02:15:24;;;;;;;65.80;28.67;;;13.30;99.90;;;;;;5046157;28;20139;-74
2020/12/23 02:17:50;;;;;;;53.85;27.73;;;13.30;99.90;;;;;;5050519;28;20107;-73
2020/12/23 02:20:17;;;;;;;67.13;30.08;;;13.30;99.90;;;;;;5046743;28;20048;-73
2020/12/23 02:22:44;;;;;;;58.75;28.83;;;13.30;99.90;;;;;;5044652;28;20029;-74
2020/12/23 02:25:10;;;;;;;61.65;28.83;;;13.20;99.90;;;;;;5045955;28;20373;-74
2020/12/23 02:27:37;;;;;;;57.80;27.45;;;13.20;99.90;;;;;;5036174;28;20029;-73
2020/12/23 02:30:04;;;;;;;58.20;26.88;;;13.20;99.90;;;;;;5047187;28;20075;-73
2020/12/23 02:32:30;;;;;;;45.33;24.15;;;13.10;99.90;;;;;;5043228;28;20072;-73
2020/12/23 02:34:56;;;;;;;57.53;26.10;;;13.20;99.90;;;;;;5049728;28;20088;-74
2020/12/23 02:37:22;;;;;;;59.67;24.85;;;13.10;99.90;;;;;;5044446;28;20029;-73
2020/12/23 02:39:53;;;;;;;44.30;21.27;;;13.20;99.90;;;;;;5044606;28;20505;-74
2020/12/23 02:42:20;;;;;;;56.33;24.55;;;13.10;99.90;;;;;;5041245;28;20123;-73
2020/12/23 02:44:47;;;;;;;43.17;22.13;;;13.20;99.90;;;;;;5042015;28;20035;-73
2020/12/23 02:47:15;;;;;;;47.72;22.73;;;13.20;99.90;;;;;;5039455;28;20053;-73
2020/12/23 02:49:43;;;;;;;41.72;20.75;;;13.20;99.90;;;;;;5039820;28;20021;-73
2020/12/23 02:52:09;;;;;;;44.03;20.25;;;13.20;99.90;;;;;;5044278;28;20478;-73
2020/12/23 02:54:35;;;;;;;32.88;17.38;;;13.20;99.90;;;;;;5040463;28;20021;-73
2020/12/23 02:57:05;;;;;;;35.78;19.02;;;13.20;99.90;;;;;;5043810;28;20433;-73
2020/12/23 02:59:30;;;;;;;35.13;18.25;;;13.20;99.90;;;;;;5041090;28;20535;-73
2020/12/23 03:01:56;;;;;;;28.45;15.63;;;13.30;99.90;;;;;;5037382;28;20029;-73
2020/12/23 03:04:22;;;;;;;28.67;16.25;;;13.30;99.90;;;;;;5039689;28;20493;-73
2020/12/23 03:06:47;;;;;;;30.65;16.73;;;13.30;99.90;;;;;;5041392;28;20101;-73
2020/12/23 03:09:13;;;;;;;32.75;16.92;;;13.30;99.90;;;;;;5047379;28;20108;-73
2020/12/23 03:11:39;;;;;;;28.17;15.50;;;13.30;99.90;;;;;;5046257;28;20504;-73
2020/12/23 03:14:06;;;;;;;40.25;16.95;;;13.30;99.90;;;;;;5040419;28;20063;-73
2020/12/23 03:16:33;;;;;;;36.60;17.50;;;13.30;99.90;;;;;;5045452;28;20030;-73
2020/12/23 03:18:59;;;;;;;44.53;19.13;;;13.30;99.90;;;;;;5049302;28;20132;-73
2020/12/23 03:21:24;;;;;;;32.78;16.05;;;13.30;99.90;;;;;;5042654;28;20040;-73
2020/12/23 03:23:50;;;;;;;26.08;14.65;;;13.40;99.90;;;;;;5041619;28;20029;-73
2020/12/23 03:26:16;;;;;;;25.15;13.25;;;13.40;99.90;;;;;;5046972;28;20025;-73
2020/12/23 03:28:42;;;;;;;26.92;14.13;;;13.40;99.90;;;;;;5037743;28;20500;-73
2020/12/23 03:31:08;;;;;;;29.67;14.32;;;13.40;99.90;;;;;;5038771;28;20021;-73
2020/12/23 03:33:34;;;;;;;23.33;13.00;;;13.40;99.90;;;;;;5048236;28;20028;-73
2020/12/23 03:36:00;;;;;;;21.55;13.20;;;13.40;99.90;;;;;;5047787;28;20021;-73
2020/12/23 03:38:26;;;;;;;22.40;13.60;;;13.40;99.90;;;;;;5042443;28;20036;-73
2020/12/23 03:40:52;;;;;;;23.08;12.73;;;13.40;99.90;;;;;;5039123;28;20038;-73
2020/12/23 03:43:18;;;;;;;29.73;13.02;;;13.40;99.90;;;;;;5043902;28;20041;-73
2020/12/23 03:45:43;;;;;;;18.70;12.13;;;13.50;99.90;;;;;;5044828;28;20025;-72
2020/12/23 03:48:09;;;;;;;25.13;13.68;;;13.50;99.90;;;;;;5048023;28;20485;-73
2020/12/23 03:50:35;;;;;;;36.25;16.05;;;13.50;99.90;;;;;;5042844;28;20022;-73
2020/12/23 03:53:01;;;;;;;30.23;15.73;;;13.50;99.90;;;;;;5039903;28;20380;-73
2020/12/23 03:55:27;;;;;;;37.03;16.00;;;13.50;99.90;;;;;;5048420;28;20437;-73
2020/12/23 03:57:53;;;;;;;23.95;13.52;;;13.40;99.90;;;;;;5044527;28;20047;-73
2020/12/23 04:00:19;;;;;;;33.33;14.85;;;13.50;99.90;;;;;;5056071;28;20147;-73
2020/12/23 04:02:45;;;;;;;35.25;16.67;;;13.40;99.90;;;;;;5042413;28;20057;-72
2020/12/23 04:05:11;;;;;;;24.75;13.60;;;13.40;99.90;;;;;;5047543;28;20040;-73
2020/12/23 04:07:37;;;;;;;29.50;14.40;;;13.50;99.90;;;;;;5037453;28;20021;-73
2020/12/23 04:10:07;;;;;;;32.05;14.77;;;13.40;99.90;;;;;;5038047;28;20082;-73
2020/12/23 04:12:35;;;;;;;22.10;12.57;;;13.40;99.90;;;;;;5047252;28;20052;-73
2020/12/23 04:15:09;;;;;;;27.45;14.35;;;13.50;99.90;;;;;;5042042;28;20029;-73
2020/12/23 04:17:35;;;;;;;26.83;12.68;;;13.50;99.90;;;;;;5041719;28;20025;-73
2020/12/23 04:20:06;;;;;;;22.42;11.95;;;13.50;99.90;;;;;;5041012;28;20483;-73
2020/12/23 04:22:32;;;;;;;22.55;11.95;;;13.50;99.90;;;;;;5041250;28;20029;-73
2020/12/23 04:24:59;;;;;;;26.23;12.13;;;13.50;99.90;;;;;;5037045;28;20028;-73
2020/12/23 04:27:26;;;;;;;16.55;9.70;;;13.50;99.90;;;;;;5041781;28;20096;-73
2020/12/23 04:29:52;;;;;;;14.70;9.60;;;13.50;99.90;;;;;;5040937;28;20030;-73
2020/12/23 04:32:18;;;;;;;17.63;10.63;;;13.50;99.90;;;;;;5046878;28;20017;-73
2020/12/23 04:34:44;;;;;;;14.15;8.52;;;13.50;99.90;;;;;;5043808;28;20021;-73
2020/12/23 04:37:09;;;;;;;14.93;9.20;;;13.50;99.90;;;;;;5047274;28;20036;-73
2020/12/23 04:39:35;;;;;;;12.57;9.18;;;13.50;99.90;;;;;;5045058;28;20025;-73
2020/12/23 04:42:00;;;;;;;11.63;8.88;;;13.50;99.90;;;;;;5044927;28;20473;-73
2020/12/23 04:44:26;;;;;;;16.58;8.75;;;13.50;99.90;;;;;;5050346;28;20087;-73
2020/12/23 04:46:55;;;;;;;13.50;8.52;;;13.50;99.90;;;;;;5043385;28;20025;-73
2020/12/23 04:49:22;;;;;;;14.02;9.02;;;13.50;99.90;;;;;;5043873;28;20500;-73
2020/12/23 04:51:52;;;;;;;10.45;7.85;;;13.50;99.90;;;;;;5047476;28;20079;-73
2020/12/23 04:54:18;;;;;;;13.13;8.15;;;13.50;99.90;;;;;;5046192;28;20029;-73
2020/12/23 04:56:44;;;;;;;10.93;7.90;;;13.50;99.90;;;;;;5046775;28;20151;-73
2020/12/23 04:59:09;;;;;;;12.43;6.57;;;13.50;99.90;;;;;;5047804;28;20078;-73
2020/12/23 05:01:35;;;;;;;19.02;7.72;;;13.50;99.90;;;;;;5050377;28;20028;-73
2020/12/23 05:04:02;;;;;;;10.93;6.90;;;13.50;99.90;;;;;;5048508;28;20043;-73
2020/12/23 05:06:27;;;;;;;11.75;6.88;;;13.50;99.90;;;;;;5051689;28;20047;-73
2020/12/23 05:08:53;;;;;;;12.35;6.18;;;13.50;99.90;;;;;;5043116;28;20065;-73
2020/12/23 05:11:18;;;;;;;13.45;7.15;;;13.50;99.90;;;;;;5043267;28;20033;-73
2020/12/23 05:13:44;;;;;;;12.77;6.32;;;13.40;99.90;;;;;;5043462;28;20545;-73
2020/12/23 05:16:12;;;;;;;7.15;5.60;;;13.50;99.90;;;;;;5043716;28;20032;-73
2020/12/23 05:18:41;;;;;;;8.32;5.43;;;13.40;99.90;;;;;;5044913;28;20171;-73
2020/12/23 05:21:17;;;;;;;11.15;5.43;;;13.40;99.90;;;;;;5046722;28;20067;-73
2020/12/23 05:23:47;;;;;;;5.32;4.50;;;13.40;99.90;;;;;;5044829;28;20033;-74
2020/12/23 05:26:14;;;;;;;6.53;5.00;;;13.40;99.90;;;;;;5048687;28;20097;-73
2020/12/23 05:28:41;;;;;;;5.60;4.35;;;13.40;99.90;;;;;;5051809;28;20032;-73
2020/12/23 05:31:17;;;;;;;7.22;4.45;;;13.50;99.90;;;;;;5041191;28;20026;-74
2020/12/23 05:33:48;;;;;;;5.95;4.32;;;13.40;99.90;;;;;;5043649;28;20029;-73
2020/12/23 05:36:16;;;;;;;6.07;4.07;;;13.40;99.90;;;;;;5044023;28;20031;-73
2020/12/23 05:38:42;;;;;;;3.85;3.20;;;13.40;99.90;;;;;;5042620;28;20017;-73
2020/12/23 05:41:14;;;;;;;6.90;3.95;;;13.50;99.90;;;;;;5041820;28;20037;-73
2020/12/23 05:43:40;;;;;;;3.60;3.30;;;13.50;99.90;;;;;;5047660;28;20505;-73
2020/12/23 05:46:07;;;;;;;4.38;3.95;;;13.50;99.90;;;;;;5056488;28;20037;-73
2020/12/23 05:48:35;;;;;;;5.93;2.70;;;13.50;99.90;;;;;;5046418;28;20083;-73
2020/12/23 05:51:02;;;;;;;4.05;3.03;;;13.50;99.90;;;;;;5043419;28;20017;-73
2020/12/23 05:53:29;;;;;;;5.28;2.95;;;13.60;99.90;;;;;;5042065;28;20017;-73
2020/12/23 05:55:55;;;;;;;3.35;2.58;;;13.50;99.90;;;;;;5045579;28;20029;-73
2020/12/23 05:58:31;;;;;;;3.88;3.28;;;13.50;99.90;;;;;;5044386;28;20029;-73
2020/12/23 06:00:59;;;;;;;7.40;2.67;;;13.50;99.90;;;;;;5040736;28;20029;-73
2020/12/23 06:03:43;;;;;;;4.88;2.50;;;13.50;99.90;;;;;;5042011;28;20490;-73
2020/12/23 06:06:12;;;;;;;4.72;2.60;;;13.50;99.90;;;;;;5044778;28;20060;-73
2020/12/23 06:08:39;;;;;;;3.17;2.20;;;13.50;99.90;;;;;;5042730;28;20040;-74
2020/12/23 06:11:40;;;;;;;2.63;2.38;;;13.50;99.90;;;;;;5050613;28;20025;-73
2020/12/23 06:14:10;;;;;;;3.05;2.15;;;13.40;99.90;;;;;;5036495;28;20446;-74
2020/12/23 06:16:59;;;;;;;3.70;2.30;;;13.40;99.90;;;;;;5042390;28;20024;-73
2020/12/23 06:19:39;;;;;;;3.58;2.00;;;13.50;99.90;;;;;;5041990;28;20064;-73
2020/12/23 06:22:06;;;;;;;1.80;1.65;;;13.50;99.90;;;;;;5044781;28;20505;-73
2020/12/23 06:24:33;;;;;;;2.00;1.70;;;13.40;99.90;;;;;;5048353;28;20055;-72
2020/12/23 06:27:03;;;;;;;5.80;1.70;;;13.40;99.90;;;;;;5049915;28;20024;-73
2020/12/23 06:29:31;;;;;;;1.88;1.70;;;13.40;99.90;;;;;;5042585;28;20029;-73
2020/12/23 06:32:22;;;;;;;3.22;1.60;;;13.40;99.90;;;;;;5050123;28;20055;-73
2020/12/23 06:34:59;;;;;;;3.55;1.48;;;13.50;99.90;;;;;;5051421;28;20032;-73
2020/12/23 06:37:30;;;;;;;2.03;1.60;;;13.50;99.90;;;;;;5046137;28;20493;-73
2020/12/23 06:39:58;;;;;;;3.97;1.50;;;13.50;99.90;;;;;;5048027;28;20021;-73
2020/12/23 06:42:26;;;;;;;2.10;1.60;;;13.50;99.90;;;;;;5047449;28;20044;-74
2020/12/23 06:44:58;;;;;;;1.92;1.70;;;13.40;99.90;;;;;;5042263;28;20025;-73
2020/12/23 06:47:25;;;;;;;2.67;1.70;;;13.40;99.90;;;;;;5040784;28;20028;-73
2020/12/23 06:49:52;;;;;;;2.25;1.70;;;13.40;99.90;;;;;;5046005;28;20087;-73
2020/12/23 06:52:24;;;;;;;2.15;1.48;;;13.40;99.90;;;;;;5040423;28;20512;-73
2020/12/23 06:54:53;;;;;;;1.98;1.67;;;13.40;99.90;;;;;;5035462;28;20027;-74
2020/12/23 06:57:35;;;;;;;2.90;1.50;;;13.30;99.90;;;;;;5050692;28;20033;-73
2020/12/23 07:00:21;;;;;;;1.55;1.45;;;13.30;99.90;;;;;;5040946;28;20025;-73
2020/12/23 07:02:48;;;;;;;2.05;1.80;;;13.30;99.90;;;;;;5027582;28;20460;-74
2020/12/23 07:05:35;;;;;;;3.17;1.30;;;13.30;99.90;;;;;;5035140;28;20014;-73
2020/12/23 07:08:07;;;;;;;1.73;1.35;;;13.30;99.90;;;;;;5039747;28;20041;-73
2020/12/23 07:10:37;;;;;;;2.08;1.42;;;13.30;99.90;;;;;;5043255;28;20057;-73
2020/12/23 07:13:10;;;;;;;3.28;1.50;;;13.30;99.90;;;;;;5042260;28;20381;-73
2020/12/23 07:15:38;;;;;;;3.10;1.80;;;13.30;99.90;;;;;;5040881;28;20021;-73
2020/12/23 07:18:12;;;;;;;2.88;2.67;;;13.30;99.90;;;;;;5047981;28;20035;-73
2020/12/23 07:20:49;;;;;;;4.18;3.88;;;13.30;99.90;;;;;;5042312;28;20021;-74
2020/12/23 07:23:19;;;;;;;46.42;36.72;;;13.30;99.90;;;;;;5039441;28;20037;-73
2020/12/23 07:25:51;;;;;;;4.47;3.50;;;13.20;99.90;;;;;;5043120;28;20018;-73
2020/12/23 07:28:23;;;;;;;7.50;5.95;;;13.30;99.90;;;;;;5051643;28;20124;-73
2020/12/23 07:30:49;;;;;;;;;;;13.30;99.90;;;;;;5041854;28;20472;-73
2020/12/23 07:33:19;;;;;;;3.08;2.88;;;13.30;99.90;;;;;;5038573;28;19913;-73
2020/12/23 07:35:51;;;;;;;4.45;3.97;;;13.30;99.90;;;;;;5044136;28;20067;-73
2020/12/23 07:38:18;;;;;;;5.05;4.60;;;13.30;99.90;;;;;;5039824;28;20495;-73
2020/12/23 07:40:44;;;;;;;6.32;5.78;;;13.30;99.90;;;;;;5039410;28;20496;-73
2020/12/23 07:43:13;;;;;;;2.55;2.15;;;13.30;99.90;;;;;;5043486;28;20445;-73
2020/12/23 07:45:39;;;;;;;3.63;2.97;;;13.30;99.90;;;;;;5041798;28;20025;-73
2020/12/23 07:48:11;;;;;;;5.93;4.07;;;13.30;99.90;;;;;;5036547;28;20029;-74
2020/12/23 07:50:41;;;;;;;7.07;2.85;;;13.30;99.90;;;;;;5042358;28;20055;-74
2020/12/23 07:53:14;;;;;;;5.60;3.17;;;13.30;99.90;;;;;;5048207;28;20021;-73
2020/12/23 07:55:41;;;;;;;3.45;3.15;;;13.30;99.90;;;;;;5045489;28;20074;-74
2020/12/23 07:58:08;;;;;;;5.10;2.85;;;13.30;99.90;;;;;;5051603;28;20499;-74
2020/12/23 08:00:34;;;;;;;4.13;3.05;;;13.30;99.90;;;;;;5044730;28;20021;-74
2020/12/23 08:03:00;;;;;;;3.13;2.85;;;13.30;99.90;;;;;;5038647;28;20095;-74
2020/12/23 08:05:25;;;;;;;5.22;3.42;;;13.40;99.90;;;;;;5042363;28;20029;-74
2020/12/23 08:07:52;;;;;;;5.35;4.55;;;13.30;99.90;;;;;;5040225;28;20025;-74
2020/12/23 08:10:20;;;;;;;4.15;3.60;;;13.40;99.90;;;;;;5038577;28;20076;-73
2020/12/23 08:12:59;;;;;;;6.60;4.78;;;13.40;99.90;;;;;;5039349;28;20124;-75
2020/12/23 08:15:28;;;;;;;8.25;3.88;;;13.30;99.90;;;;;;5043236;28;20029;-74
2020/12/23 08:18:10;;;;;;;5.38;4.10;;;13.40;99.90;;;;;;5061727;28;20481;-74
2020/12/23 08:20:36;;;;;;;5.90;3.83;;;13.30;99.90;;;;;;5046156;28;20021;-74
2020/12/23 08:23:02;;;;;;;4.43;4.03;;;13.40;99.90;;;;;;5045960;28;20041;-74
2020/12/23 08:25:29;;;;;;;8.63;4.32;;;13.30;99.90;;;;;;5052953;28;20013;-74
2020/12/23 08:27:57;;;;;;;7.15;6.45;;;13.30;99.90;;;;;;5052552;28;20013;-74
2020/12/23 08:30:25;;;;;;;6.05;4.20;;;13.40;99.90;;;;;;5041379;28;20024;-73
2020/12/23 08:33:10;;;;;;;5.65;3.50;;;13.30;99.90;;;;;;5046685;28;20028;-74
2020/12/23 08:35:41;;;;;;;5.03;3.78;;;13.30;99.90;;;;;;5049315;28;20017;-74
2020/12/23 08:38:16;;;;;;;5.85;3.80;;;13.20;99.90;;;;;;5048597;28;20037;-74
2020/12/23 08:40:51;;;;;;;5.80;3.50;;;13.30;99.90;;;;;;5047659;28;20040;-74
2020/12/23 08:43:28;;;;;;;7.22;4.65;;;13.30;99.90;;;;;;5042478;28;20485;-74
2020/12/23 08:45:55;;;;;;;6.60;4.25;;;13.40;99.90;;;;;;5043752;28;20025;-74
2020/12/23 08:48:22;;;;;;;5.32;4.50;;;13.40;99.90;;;;;;5045946;28;20032;-74
2020/12/23 08:51:02;;;;;;;14.07;12.65;;;13.40;99.90;;;;;;5045299;28;20067;-74
2020/12/23 08:53:35;;;;;;;7.15;3.90;;;13.40;99.90;;;;;;5047456;28;20029;-74
2020/12/23 08:56:19;;;;;;;5.28;3.85;;;13.40;99.90;;;;;;5044725;28;20033;-74
2020/12/23 08:58:48;;;;;;;4.78;3.70;;;13.50;99.90;;;;;;5044909;28;20029;-74
2020/12/23 09:01:21;;;;;;;3.50;3.20;;;13.50;99.90;;;;;;5045727;28;20035;-74
2020/12/23 09:03:57;;;;;;;4.47;3.35;;;13.50;99.90;;;;;;5047948;28;20386;-74
2020/12/23 09:06:23;;;;;;;8.40;3.42;;;13.60;99.90;;;;;;5049503;28;20029;-74
2020/12/23 09:08:48;;;;;;;12.27;11.20;;;13.60;99.90;;;;;;5050469;28;20031;-73
2020/12/23 09:11:14;;;;;;;4.47;3.75;;;13.60;99.90;;;;;;5051838;28;20029;-73
2020/12/23 09:13:40;;;;;;;5.32;3.50;;;13.60;99.90;;;;;;5048198;28;20035;-73
2020/12/23 09:16:05;;;;;;;6.60;5.90;;;13.60;99.90;;;;;;5047935;28;20025;-74
2020/12/23 09:18:31;;;;;;;6.63;3.10;;;13.60;99.90;;;;;;5047798;28;20029;-73
2020/12/23 09:21:02;;;;;;;2.38;2.03;;;13.60;99.90;;;;;;5051900;28;20377;-74
2020/12/23 09:23:28;;;;;;;13.48;10.40;;;13.60;99.90;;;;;;5047066;28;20439;-74
2020/12/23 09:25:55;;;;;;;3.50;2.90;;;13.70;99.90;;;;;;5047504;28;20017;-74
2020/12/23 09:28:23;;;;;;;10.13;9.18;;;13.70;99.90;;;;;;5036921;28;20055;-74
2020/12/23 09:30:51;;;;;;;4.28;2.88;;;13.60;99.90;;;;;;5043537;28;20138;-75
2020/12/23 09:33:18;;;;;;;3.95;2.60;;;13.60;99.90;;;;;;5056245;28;20025;-75
2020/12/23 09:35:45;;;;;;;4.40;3.15;;;13.70;99.90;;;;;;5053399;28;20024;-74
2020/12/23 09:38:17;;;;;;;5.05;4.40;;;13.60;99.90;;;;;;5046793;28;20025;-75
2020/12/23 09:40:47;;;;;;;4.28;3.58;;;13.70;99.90;;;;;;5045248;28;20041;-75
2020/12/23 09:43:14;;;;;;;5.45;3.53;;;13.60;99.90;;;;;;5050523;28;20082;-74
2020/12/23 09:45:41;;;;;;;5.43;3.70;;;13.60;99.90;;;;;;5047950;28;20420;-74
2020/12/23 09:48:07;;;;;;;8.60;3.95;;;13.60;99.90;;;;;;5040918;28;20417;-75
2020/12/23 09:50:33;;;;;;;6.18;3.53;;;13.70;99.90;;;;;;5051884;28;20033;-75
2020/12/23 09:52:58;;;;;;;5.60;3.70;;;13.60;99.90;;;;;;5052413;28;20557;-74
2020/12/23 09:55:24;;;;;;;8.40;4.05;;;13.60;99.90;;;;;;5050101;28;20546;-74
2020/12/23 09:57:49;;;;;;;8.25;3.55;;;13.60;99.90;;;;;;5046545;28;20021;-75
2020/12/23 10:00:17;;;;;;;3.15;2.80;;;13.60;99.90;;;;;;5045063;28;20037;-75
2020/12/23 10:02:42;;;;;;;3.10;2.80;;;13.70;99.90;;;;;;5043434;28;20025;-74
2020/12/23 10:05:08;;;;;;;4.32;2.92;;;13.70;99.90;;;;;;5045004;28;20029;-75
2020/12/23 10:07:34;;;;;;;5.93;2.80;;;13.70;99.90;;;;;;5052993;28;20029;-75
2020/12/23 10:09:59;;;;;;;4.05;3.00;;;13.70;99.90;;;;;;5050284;28;20064;-74
2020/12/23 10:12:25;;;;;;;4.40;2.83;;;13.70;99.90;;;;;;5043814;28;20044;-75
2020/12/23 10:14:50;;;;;;;3.83;2.65;;;13.70;99.90;;;;;;5048527;28;20408;-74
2020/12/23 10:17:17;;;;;;;2.83;2.33;;;13.70;99.90;;;;;;5047603;28;20029;-74
2020/12/23 10:19:42;;;;;;;2.83;2.60;;;13.60;99.90;;;;;;5045053;28;20033;-75
2020/12/23 10:22:08;;;;;;;6.35;3.15;;;13.60;99.90;;;;;;5047349;28;20024;-75
2020/12/23 10:24:34;;;;;;;3.78;3.40;;;13.60;99.90;;;;;;5041400;28;20025;-75
2020/12/23 10:26:59;;;;;;;3.35;2.38;;;13.60;99.90;;;;;;5044348;28;20219;-75
2020/12/23 10:29:25;;;;;;;6.35;2.10;;;13.60;99.90;;;;;;5043778;28;20030;-75
2020/12/23 10:31:51;;;;;;;3.97;2.85;;;13.50;99.90;;;;;;5047760;28;20029;-74
2020/12/23 10:34:16;;;;;;;3.05;2.80;;;13.50;99.90;;;;;;5043362;28;20528;-74
2020/12/23 10:36:45;;;;;;;2.45;2.20;;;13.50;99.90;;;;;;5047318;28;20024;-75
2020/12/23 10:39:11;;;;;;;3.00;2.35;;;13.50;99.90;;;;;;5049368;28;20166;-74
2020/12/23 10:41:36;;;;;;;5.68;2.63;;;13.50;99.90;;;;;;5040807;28;20046;-75
2020/12/23 10:44:02;;;;;;;4.90;2.80;;;13.40;99.90;;;;;;5048049;28;20045;-74
2020/12/23 10:46:28;;;;;;;4.35;3.53;;;13.40;99.90;;;;;;5046182;28;20017;-74
2020/12/23 10:48:53;;;;;;;5.47;4.35;;;13.30;99.90;;;;;;5048981;28;20039;-74
2020/12/23 10:51:19;;;;;;;3.60;2.72;;;13.40;99.90;;;;;;5048608;28;21207;-74
2020/12/23 10:53:44;;;;;;;6.25;3.15;;;13.30;99.90;;;;;;5047804;28;20021;-74
2020/12/23 10:56:10;;;;;;;3.72;2.85;;;13.40;99.90;;;;;;5050255;28;20029;-74
2020/12/23 10:58:36;;;;;;;3.90;2.28;;;13.40;99.90;;;;;;5047197;28;20062;-74
2020/12/23 11:01:05;;;;;;;5.55;2.20;;;13.40;99.90;;;;;;5044120;28;20043;-74
2020/12/23 11:03:34;;;;;;;4.88;2.80;;;13.50;99.90;;;;;;5042582;28;20496;-73
2020/12/23 11:06:01;;;;;;;3.58;3.20;;;13.40;99.90;;;;;;5051318;28;20021;-73
2020/12/23 11:08:27;;;;;;;4.38;3.53;;;13.50;99.90;;;;;;5044042;28;20021;-74
2020/12/23 11:10:53;;;;;;;9.32;8.52;;;13.30;99.90;;;;;;5049550;28;20036;-74
2020/12/23 11:13:20;;;;;;;6.07;3.35;;;13.40;99.90;;;;;;5050439;28;20028;-74
2020/12/23 11:15:46;;;;;;;5.60;4.68;;;13.30;99.90;;;;;;5047836;28;20235;-74
2020/12/23 11:18:12;;;;;;;17.50;15.95;;;13.40;99.90;;;;;;5050643;28;20937;-74
2020/12/23 11:20:38;;;;;;;5.15;3.80;;;13.40;99.90;;;;;;5052186;28;20025;-74
2020/12/23 11:23:04;;;;;;;7.15;4.78;;;13.40;99.90;;;;;;5053952;28;20124;-74
2020/12/23 11:25:30;;;;;;;5.07;4.35;;;13.50;99.90;;;;;;5049184;28;20151;-73
2020/12/23 11:27:56;;;;;;;5.00;4.35;;;13.50;99.90;;;;;;5047231;28;20155;-74
2020/12/23 11:30:22;;;;;;;4.82;4.22;;;13.60;99.90;;;;;;5054101;28;20036;-74
2020/12/23 11:32:47;;;;;;;5.40;4.55;;;13.50;99.90;;;;;;5052185;28;20021;-74
2020/12/23 11:35:13;;;;;;;6.38;4.93;;;13.50;99.90;;;;;;5048867;28;20549;-75
2020/12/23 11:37:39;;;;;;;6.72;4.20;;;13.50;99.90;;;;;;5054243;28;20024;-75
2020/12/23 11:40:04;;;;;;;5.35;3.85;;;13.50;99.90;;;;;;5044398;28;20024;-75
2020/12/23 11:42:30;;;;;;;6.97;5.68;;;13.50;99.90;;;;;;5048117;28;20056;-75
2020/12/23 11:44:56;;;;;;;5.80;3.67;;;13.60;99.90;;;;;;5041450;28;20553;-76
2020/12/23 11:47:21;;;;;;;7.35;4.10;;;13.60;99.90;;;;;;5046394;28;20494;-75
2020/12/23 11:49:47;;;;;;;5.35;4.00;;;13.60;99.90;;;;;;5044651;28;20021;-75
2020/12/23 11:52:12;;;;;;;5.30;3.90;;;13.60;99.90;;;;;;5046731;28;20398;-74
2020/12/23 11:54:38;;;;;;;4.15;3.35;;;13.50;99.90;;;;;;5042573;28;20031;-75
2020/12/23 11:57:04;;;;;;;6.35;5.80;;;13.50;99.90;;;;;;5047503;28;20055;-74
2020/12/23 11:59:31;;;;;;;3.75;3.28;;;13.50;99.90;;;;;;5044060;28;20032;-75
2020/12/23 12:01:56;;;;;;;7.50;4.93;;;13.50;99.90;;;;;;5046995;28;20014;-75
2020/12/23 12:04:22;;;;;;;3.20;2.92;;;13.50;99.90;;;;;;5046895;28;20064;-75
2020/12/23 12:06:53;;;;;;;5.47;3.50;;;13.50;99.90;;;;;;5043744;28;20037;-75
2020/12/23 12:09:19;;;;;;;3.60;3.25;;;13.60;99.90;;;;;;5044072;28;20485;-75
2020/12/23 12:11:44;;;;;;;4.07;3.40;;;13.60;99.90;;;;;;5041854;28;20024;-75
2020/12/23 12:14:10;;;;;;;10.10;7.95;;;13.60;99.90;;;;;;5042989;28;20037;-75
2020/12/23 12:16:36;;;;;;;4.18;3.70;;;13.60;99.90;;;;;;5039002;28;20031;-75
2020/12/23 12:19:01;;;;;;;3.67;3.20;;;13.60;99.90;;;;;;5042247;28;20060;-74
2020/12/23 12:21:27;;;;;;;4.00;3.60;;;13.60;99.90;;;;;;5047735;28;20021;-75
2020/12/23 12:23:53;;;;;;;4.43;3.22;;;13.50;99.90;;;;;;5045895;28;20087;-75
2020/12/23 12:26:19;;;;;;;4.65;3.03;;;13.50;99.90;;;;;;5045451;28;20036;-75
2020/12/23 12:28:44;;;;;;;2.85;2.55;;;13.50;99.90;;;;;;5041153;28;20029;-75
2020/12/23 12:31:10;;;;;;;3.47;2.85;;;13.40;99.90;;;;;;5044904;28;20016;-75
2020/12/23 12:33:36;;;;;;;10.85;4.22;;;13.30;99.90;;;;;;5042665;28;20040;-75
2020/12/23 12:36:01;;;;;;;5.45;4.95;;;13.20;99.90;;;;;;5045691;28;20515;-75
2020/12/23 12:38:27;;;;;;;4.88;3.25;;;13.30;99.90;;;;;;5051525;28;20032;-75
2020/12/23 12:40:52;;;;;;;4.63;3.10;;;13.30;99.90;;;;;;5042820;28;20029;-74